createdAt,value
2019-01-08T00:00:50.556Z,61.68
2019-01-08T00:30:52.849Z,61.27
2019-01-08T00:45:51.762Z,61.46
2019-01-08T01:00:51.678Z,61.54
2019-01-08T01:15:51.547Z,61.44
2019-01-08T01:30:53.438Z,60.80
2019-01-08T01:45:50.837Z,60.99
2019-01-08T02:00:51.659Z,60.18
2019-01-08T02:15:53.599Z,60.74
2019-01-08T02:30:51.034Z,60.23
2019-01-08T02:45:51.976Z,60.12
2019-01-08T03:00:51.320Z,59.82
2019-01-08T03:15:51.289Z,59.33
2019-01-08T03:30:54.709Z,59.71
2019-01-08T03:45:58.036Z,60.36
2019-01-08T04:00:53.470Z,59.59
2019-01-08T04:15:52.807Z,59.66
2019-01-08T04:30:51.827Z,60.46
2019-01-08T04:45:51.748Z,60.32
2019-01-08T05:00:51.604Z,60.04
2019-01-08T05:15:51.559Z,59.87
2019-01-08T05:30:53.858Z,59.23
2019-01-08T05:45:50.800Z,58.43
2019-01-08T06:00:53.697Z,58.39
2019-01-08T06:15:51.716Z,59.41
2019-01-08T06:30:51.558Z,59.03
2019-01-08T06:45:51.431Z,59.25
2019-01-08T07:00:50.847Z,59.10
2019-01-08T07:15:49.916Z,57.82
2019-01-08T07:30:51.100Z,56.29
2019-01-08T07:45:52.495Z,55.02
2019-01-08T08:00:50.932Z,54.93
2019-01-08T08:15:50.872Z,52.24
2019-01-08T08:30:58.673Z,48.32
2019-01-08T08:45:50.580Z,44.58
2019-01-08T09:00:52.500Z,42.31
2019-01-08T09:15:51.947Z,41.29
2019-01-08T09:45:51.284Z,39.28
2019-01-08T10:00:50.125Z,37.92
2019-01-08T17:45:53.771Z,55.29
2019-01-08T18:00:52.413Z,55.65
2019-01-08T18:15:53.454Z,54.12
2019-01-08T18:30:53.406Z,54.65
2019-01-08T18:45:51.308Z,53.91
2019-01-08T19:00:50.719Z,55.14
2019-01-08T19:15:51.161Z,56.84
2019-01-08T19:30:52.754Z,56.73
2019-01-08T19:45:51.499Z,55.98
2019-01-08T20:00:51.489Z,55.27
2019-01-08T20:15:51.443Z,55.89
2019-01-08T20:30:51.379Z,56.86
2019-01-08T20:45:53.144Z,57.35
2019-01-08T21:00:51.544Z,58.61
2019-01-08T21:15:51.912Z,57.92
2019-01-08T21:30:53.428Z,58.42
2019-01-08T21:45:51.594Z,57.14
2019-01-08T22:00:51.058Z,56.87
2019-01-08T22:15:52.926Z,57.67
2019-01-08T22:30:51.948Z,57.36
2019-01-08T22:45:50.816Z,57.01
2019-01-08T23:15:51.645Z,57.70
2019-01-08T23:30:51.490Z,57.67
2019-01-08T23:45:52.408Z,57.54
